Tiempo atmosférico en la estación meteorológica de Degaña, Asturias (1305 m.)



Fecha
DESCASC
Temp. máxima en grados centígrados (hora)
DESCASC
Temp. mínima en grados centígrados (hora)
DESCASC
Temp. media en grados centígrados
DESCASC
Racha de viento máxima en m/sg (hora)
DESCASC
Velocidad máxima media en intervalos de 10 minutos(hora)
DESCASC
Precipitaciones diarias en mm
DESCASC
Precipitaciones de 00:00 a 06:00 en mm
DESCASC
Precipitaciones de 06:00 a 12:00 en mm
DESCASC
Precipitaciones de 12:00 a 18:00 en mm
DESCASC
Precipitaciones de 18:00 a 24:00 en mm
DESCASC
18-08-2019 16.9 (00:50) 9.4 (23:59) 13.1 6.11 (19:30) 2.78 (19:30) 8.4 0 5.2 3.2 0
17-08-2019 26.1 (17:10) 10.7 (03:10) 18.4 6.39 (17:10) 2.78 (17:20) 0 0 0 0 0
16-08-2019 26.9 (15:10) 10.1 (07:50) 18.5 6.11 (17:50) 2.5 (14:20) 0 0 0 0 0
15-08-2019 23 (13:40) 7.7 (00:00) 15.3 6.94 (17:50) 3.89 (18:50) 0 0 0 0 0
14-08-2019 22.6 (16:40) 8.6 (00:00) 15.6 4.44 (16:50) 1.67 (01:40) 0 0 0 0 0
13-08-2019 21.6 (17:20) 4.9 (00:00) 13.3 6.11 (20:30) 3.61 (20:30) 0 0 0 0 0
12-08-2019 14.1 (15:10) 6.1 (00:00) 10.1 6.39 (15:50) 3.06 (18:10) 0 0 0 0 0
11-08-2019 15.7 (15:40) 6.4 (00:00) 11 9.17 (16:30) 4.17 (16:30) 0.4 0 0 0.4 0
10-08-2019 19.2 (17:00) 6.5 (00:00) 12.9 5.28 (19:20) 2.78 (19:20) 0 0 0 0 0
09-08-2019 17.9 (13:30) 9.6 (00:00) 13.8 11.39 (11:50) 3.61 (03:00) 2.8 2.8 0 0 0
08-08-2019 19.4 (16:40) 14.3 (00:00) 16.8 11.11 (20:10) 4.17 (20:30) 3.2 1.8 0 1.4 0
07-08-2019 18.4 (13:20) 9.4 (00:00) 13.9 6.94 (22:50) 3.06 (23:00) 4.6 0 0 3.6 1
06-08-2019 22.6 (14:20) 11.5 (00:00) 17.1 5 (18:00) 1.67 (23:00) 0.6 0 0 0 0.6
05-08-2019 25.8 (16:20) 9.5 (00:00) 17.6 7.22 (19:20) 3.89 (19:20) 0 0 0 0 0
04-08-2019 24.1 (16:30) 12.1 (00:00) 18.1 7.5 (19:10) 4.17 (19:00) 0 0 0 0 0
03-08-2019 27.2 (16:10) 12.5 (00:00) 19.9 8.33 (17:30) 4.44 (20:00) 0 0 0 0 0
02-08-2019 26 (16:20) 9.4 (00:00) 17.7 7.22 (03:00) 5 (03:00) 0 0 0 0 0
01-08-2019 22.2 (17:10) 8.9 (00:00) 15.6 6.39 (19:50) 3.89 (19:50) 0 0 0 0 0
31-07-2019 19.7 (16:40) 6.1 (00:00) 12.9 5.56 (08:40) 3.61 (09:00) 0 0 0 0 0
30-07-2019 17.8 (17:00) 6.4 (00:00) 12.1 6.11 (18:30) 3.61 (20:20) 0 0 0 0 0
29-07-2019 17.8 (16:50) 8.1 (00:00) 12.9 6.11 (14:00) 2.22 (17:40) 0.2 0 0 0 0.2
28-07-2019 20.9 (18:00) 5.8 (00:00) 13.3 6.39 (04:20) 3.89 (04:10) 0 0 0 0 0
27-07-2019 13.5 (17:20) 8.9 (00:00) 11.2 5.56 (14:30) 3.06 (14:30) 9.2 3.6 5.4 0.2 0
26-07-2019 16.7 (15:50) 8.9 (00:00) 12.8 5.83 (19:20) 3.06 (19:20) 1.8 1.8 0 0 0
25-07-2019 24.8 (14:30) 13.1 (00:00) 18.9 8.61 (09:30) 3.33 (11:10) 6.2 0 0 0 6.2
24-07-2019 27.8 (17:10) 14.8 (00:00) 21.3 9.44 (02:20) 5.83 (02:30) 0 0 0 0 0
23-07-2019 26.6 (17:10) 14.8 (00:00) 20.7 10.83 (10:30) 7.22 (01:50) 3 0 0 0 3
22-07-2019 30.8 (17:00) 14.6 (00:00) 22.7 9.17 (22:40) 5 (22:40) 0 0 0 0 0

Gráficas

Temp. máximas Temp. mínimas Temp. medias Precipitaciones Rachas de viento máximas Velocidades máximas media en intervalos de 10 minutos

Datos horarios

Fecha y hora oficial Temperatura (ºC) Velocidad del viento (km/h) Dirección del viento Racha (km/h) Dirección de racha Precipitación (mm) Presión (hPa) Tendencia (hPa) Humedad (%)
2019-08-20 23:00:00 12.3 0 Calma 4 Sudeste 0 -- -- 93
2019-08-20 22:00:00 12.8 0 Calma 5 Noroeste 0 -- -- 92
2019-08-20 21:00:00 13.5 2 Oeste 6 Este 0 -- -- 88
2019-08-20 20:00:00 15.7 3 Este 14 Sur 0 -- -- 79
2019-08-20 19:00:00 17.8 4 Sudeste 13 Sudeste 0 -- -- 73
2019-08-20 18:00:00 18.8 5 Sur 16 Sudeste 0 -- -- 68
2019-08-20 17:00:00 19.1 7 Sudeste 16 Sudeste 0 -- -- 66
2019-08-20 16:00:00 19.8 4 Sudeste 13 Sur 0 -- -- 64
2019-08-20 15:00:00 18.6 5 Sudoeste 17 Sur 0 -- -- 64
2019-08-20 14:00:00 17.8 7 Sur 19 Sur 0 -- -- 59
2019-08-20 13:00:00 17.1 8 Sudeste 19 Este 0 -- -- 67
2019-08-20 12:00:00 15.4 8 Sudeste 22 Sudeste 0 -- -- 62
2019-08-20 11:00:00 12.7 5 Sudoeste 13 Sur 0 -- -- 86
2019-08-20 10:00:00 10.1 0 Calma 5 Sur 0 -- -- 95
2019-08-20 09:00:00 9.6 3 Este 9 Este 0 -- -- 93
2019-08-20 08:00:00 8.8 0 Calma 2 Noroeste 0 -- -- 97
2019-08-20 07:00:00 8.9 0 Calma 4 Sur 0 -- -- 96
2019-08-20 06:00:00 9.3 3 Este 10 Nordeste 0 -- -- 91
2019-08-20 05:00:00 8.8 3 Nordeste 9 Norte 0 -- -- 95
2019-08-20 04:00:00 8.3 0 Calma 4 Sur 0 -- -- 99
2019-08-20 03:00:00 8.2 0 Calma 6 Noroeste 0 -- -- 98
2019-08-20 02:00:00 8.8 0 Calma 4 Noroeste 0 -- -- 96
2019-08-20 01:00:00 9.2 2 Sur 6 Sur 0 -- -- 95
2019-08-20 00:00:00 9.5 2 Sudoeste 17 Norte 0 -- -- 94
2019-08-19 23:00:00 9.7 8 Norte 17 Norte 0 -- -- 92
2019-08-19 22:00:00 9.4 6 Sudoeste 17 Norte 0 -- -- 95
2019-08-19 21:00:00 10.3 9 Nordeste 26 Norte 0 -- -- 90
2019-08-19 20:00:00 10.5 16 Norte 25 Noroeste 0 -- -- 90
2019-08-19 19:00:00 11.2 14 Norte 28 Norte 0 -- -- 87
2019-08-19 18:00:00 13.1 11 Noroeste 24 Noroeste 0 -- -- 81
2019-08-19 17:00:00 16.4 6 Noroeste 22 Oeste 0 -- -- 71
2019-08-19 16:00:00 18 5 Sudeste 17 Sur 0 -- -- 69
2019-08-19 15:00:00 17.3 9 Sudeste 18 Sur 0 -- -- 70
2019-08-19 14:00:00 16.3 6 Sur 19 Noroeste 0 -- -- 70
2019-08-19 13:00:00 14.2 9 Noroeste 19 Oeste 0 -- -- 71
2019-08-19 12:00:00 13.3 8 Sur 17 Este 0 -- -- 76
2019-08-19 11:00:00 11.5 8 Este 17 Sur 0 -- -- 77
2019-08-19 10:00:00 9.1 8 Sudeste 15 Este 0 -- -- 88
2019-08-19 09:00:00 7.5 2 Sudeste 5 Este 0 -- -- 95
2019-08-19 08:00:00 7.5 4 Sudeste 17 Este 0 -- -- 92
2019-08-19 07:00:00 7.5 9 Este 14 Este 0 -- -- 91
2019-08-19 06:00:00 7.8 4 Nordeste 15 Nordeste 0 -- -- 91
2019-08-19 05:00:00 7.8 5 Nordeste 11 Este 0 -- -- 96
2019-08-19 04:00:00 8 2 Oeste 8 Noroeste 0 -- -- 98
2019-08-19 03:00:00 8.1 0 Calma 5 Sur 0 -- -- 98
2019-08-19 02:00:00 8.3 0 Calma 6 Sudoeste 0 -- -- 98
2019-08-19 01:00:00 8.7 0 Calma 9 Sudoeste 0 -- -- 97
2019-08-19 00:00:00 9.4 2 Sudoeste 6 Oeste 0 -- -- 98
2019-08-18 23:00:00 10 2 Oeste 6 Sudoeste 0 -- -- 98
2019-08-18 22:00:00 10.6 2 Sudoeste 13 Noroeste 0 -- -- 96
2019-08-18 21:00:00 11.7 3 Oeste 15 Oeste 0 -- -- 91
2019-08-18 20:00:00 13 4 Noroeste 22 Oeste 0 -- -- 90
2019-08-18 19:00:00 14.2 8 Noroeste 17 Noroeste 0 -- -- 88
2019-08-18 18:00:00 15.4 6 Oeste 19 Noroeste 0 -- -- 83
2019-08-18 17:00:00 15.9 3 Este 16 Noroeste 0 -- -- 92
2019-08-18 16:00:00 14.9 6 Noroeste 17 Noroeste 0 -- -- 91
2019-08-18 15:00:00 14.6 2 Este 8 Sudeste 0 -- -- 99
2019-08-18 14:00:00 13.6 2 Nordeste 7 Este 1.2 -- -- 100
2019-08-18 13:00:00 13.4 3 Norte 10 Noroeste 2 -- -- 98
2019-08-18 12:00:00 14 4 Nordeste 8 Nordeste 4.4 -- -- 96
2019-08-18 11:00:00 15.2 0 Calma 8 Sur 0.4 -- -- 95
2019-08-18 10:00:00 14.5 2 Noroeste 6 Noroeste 0 -- -- 94
2019-08-18 09:00:00 13 2 Noroeste 5 Noroeste 0.4 -- -- 94
2019-08-18 08:00:00 13.1 2 Sudoeste 6 Norte 0 -- -- 88
2019-08-18 07:00:00 12.4 3 Norte 6 Noroeste 0 -- -- 85
2019-08-18 06:00:00 12 0 Calma 9 Noroeste 0 -- -- 84
2019-08-18 05:00:00 12.8 5 Noroeste 16 Oeste 0 -- -- 78
2019-08-18 04:00:00 12.2 3 Noroeste 6 Oeste 0 -- -- 75
2019-08-18 03:00:00 12.4 0 Calma 6 Noroeste 0 -- -- 73
2019-08-18 02:00:00 13.5 0 Calma 12 Noroeste 0 -- -- 69
2019-08-18 01:00:00 16.9 7 Noroeste 19 Noroeste 0 -- -- 56
2019-08-18 00:00:00 13.9 6 Noroeste 13 Noroeste 0 -- -- 78
2019-08-17 23:00:00 14.5 4 Noroeste 5 Noroeste 0 -- -- 77
2019-08-17 22:00:00 15.9 3 Noroeste 6 Noroeste 0 -- -- 71
2019-08-17 21:00:00 18.9 3 Noroeste 9 Norte 0 -- -- 60
2019-08-17 20:00:00 23.7 3 Norte 12 Oeste 0 -- -- 46
2019-08-17 19:00:00 25 4 Nordeste 22 Noroeste 0 -- -- 44
2019-08-17 18:00:00 25.7 5 Noroeste 23 Oeste 0 -- -- 40
2019-08-17 17:00:00 25.8 6 Noroeste 18 Noroeste 0 -- -- 44
2019-08-17 16:00:00 25.2 5 Norte 18 Noroeste 0 -- -- 47
2019-08-17 15:00:00 25 5 Oeste 18 Sur 0 -- -- 49
2019-08-17 14:00:00 24.2 5 Norte 18 Sudeste 0 -- -- 48
2019-08-17 13:00:00 23.4 6 Sudeste 16 Sudeste 0 -- -- 51
2019-08-17 12:00:00 21.8 8 Sur 14 Sudeste 0 -- -- 53
2019-08-17 11:00:00 20.8 3 Sudeste 9 Sudeste 0 -- -- 57
2019-08-17 10:00:00 18.9 2 Sudeste 4 Nordeste 0 -- -- 61
2019-08-17 09:00:00 13.7 2 Noroeste 8 Noroeste 0 -- -- 84
2019-08-17 08:00:00 11.3 4 Noroeste 7 Noroeste 0 -- -- 89
2019-08-17 07:00:00 11.2 4 Noroeste 8 Noroeste 0 -- -- 90
2019-08-17 06:00:00 11.4 3 Noroeste 8 Noroeste 0 -- -- 91
2019-08-17 05:00:00 11 4 Noroeste 8 Oeste 0 -- -- 89
2019-08-17 04:00:00 10.9 4 Noroeste 8 Noroeste 0 -- -- 87
2019-08-17 03:00:00 11 4 Noroeste 7 Oeste 0 -- -- 87
2019-08-17 02:00:00 12 4 Noroeste 8 Noroeste 0 -- -- 92
2019-08-17 01:00:00 12.8 6 Noroeste 10 Noroeste 0 -- -- 89
2019-08-17 00:00:00 13.1 4 Noroeste 8 Noroeste 0 -- -- 86
2019-08-16 23:00:00 14 7 Noroeste 10 Noroeste 0 -- -- 80
2019-08-16 22:00:00 15.6 5 Noroeste 15 Noroeste 0 -- -- 73
2019-08-16 21:00:00 19.6 4 Noroeste 11 Oeste 0 -- -- 58
2019-08-16 20:00:00 22.8 2 Nordeste 10 Nordeste 0 -- -- 48
2019-08-16 19:00:00 24.1 4 Nordeste 11 Este 0 -- -- 39
2019-08-16 18:00:00 25.1 7 Noroeste 22 Noroeste 0 -- -- 36
2019-08-16 17:00:00 26.8 5 Nordeste 12 Sudeste 0 -- -- 39
2019-08-16 16:00:00 26.2 4 Noroeste 15 Sur 0 -- -- 43
2019-08-16 15:00:00 26.6 8 Sur 17 Sur 0 -- -- 44
2019-08-16 14:00:00 25 6 Sudeste 14 Sur 0 -- -- 42
2019-08-16 13:00:00 23.2 5 Sudeste 12 Sur 0 -- -- 46
2019-08-16 12:00:00 21.8 3 Noroeste 10 Sur 0 -- -- 53
2019-08-16 11:00:00 20.1 4 Oeste 9 Sudeste 0 -- -- 46
2019-08-16 10:00:00 17.7 2 Sudeste 4 Sur 0 -- -- 70
2019-08-16 09:00:00 12.7 3 Noroeste 7 Oeste 0 -- -- 84
2019-08-16 08:00:00 10.2 4 Noroeste 8 Noroeste 0 -- -- 91
2019-08-16 07:00:00 10.3 5 Noroeste 8 Noroeste 0 -- -- 94
2019-08-16 06:00:00 10.7 6 Noroeste 8 Noroeste 0 -- -- 94
2019-08-16 05:00:00 10.9 4 Noroeste 8 Noroeste 0 -- -- 94
2019-08-16 04:00:00 11.4 6 Noroeste 9 Noroeste 0 -- -- 92
2019-08-16 03:00:00 11.4 5 Noroeste 8 Noroeste 0 -- -- 91
2019-08-16 02:00:00 11.2 3 Noroeste 8 Noroeste 0 -- -- 89
2019-08-16 01:00:00 10.5 4 Noroeste 9 Noroeste 0 -- -- 87
2019-08-16 00:00:00 11.4 3 Noroeste 6 Noroeste 0 -- -- 93
2019-08-15 23:00:00 12.8 4 Noroeste 6 Noroeste 0 -- -- 94
2019-08-15 22:00:00 15 2 Noroeste 14 Noroeste 0 -- -- 87
2019-08-15 21:00:00 17.3 3 Oeste 13 Oeste 0 -- -- 78
2019-08-15 20:00:00 19.7 5 Oeste 21 Oeste 0 -- -- 70
2019-08-15 19:00:00 20.3 11 Noroeste 23 Noroeste 0 -- -- 66
2019-08-15 18:00:00 21.1 12 Noroeste 25 Noroeste 0 -- -- 62
2019-08-15 17:00:00 21.8 12 Noroeste 22 Noroeste 0 -- -- 57
2019-08-15 16:00:00 21.4 6 Noroeste 21 Noroeste 0 -- -- 57
2019-08-15 15:00:00 20.8 9 Noroeste 21 Noroeste 0 -- -- 57
2019-08-15 14:00:00 22.8 5 Norte 21 Oeste 0 -- -- 52
2019-08-15 13:00:00 21.9 5 Sur 14 Sudeste 0 -- -- 57
2019-08-15 12:00:00 20.7 7 Sur 14 Sur 0 -- -- 59
2019-08-15 11:00:00 19.5 4 Sur 12 Sur 0 -- -- 54
2019-08-15 10:00:00 16.1 2 Este 6 Noroeste 0 -- -- 48
2019-08-15 09:00:00 11.2 5 Noroeste 9 Noroeste 0 -- -- 69
2019-08-15 08:00:00 8.4 6 Noroeste 9 Noroeste 0 -- -- 71
2019-08-15 07:00:00 8.2 7 Noroeste 9 Noroeste 0 -- -- 73
2019-08-15 06:00:00 7.7 4 Noroeste 8 Noroeste 0 -- -- 85
2019-08-15 05:00:00 9.7 3 Noroeste 5 Oeste 0 -- -- 97
2019-08-15 04:00:00 8.7 4 Noroeste 8 Noroeste 0 -- -- 92
2019-08-15 03:00:00 8.9 6 Noroeste 8 Noroeste 0 -- -- 90
2019-08-15 02:00:00 11.4 4 Noroeste 8 Noroeste 0 -- -- 93
2019-08-15 01:00:00 14.2 0 Calma 4 Noroeste 0 -- -- 91
2019-08-15 00:00:00 15 0 Calma 5 Noroeste 0 -- -- 91
2019-08-14 23:00:00 15.5 2 Noroeste 7 Noroeste 0 -- -- 90
2019-08-14 22:00:00 16.1 3 Noroeste 8 Noroeste 0 -- -- 89
2019-08-14 21:00:00 17 3 Noroeste 12 Noroeste 0 -- -- 84
2019-08-14 20:00:00 18.7 3 Noroeste 10 Nordeste 0 -- -- 74
2019-08-14 19:00:00 19.2 5 Nordeste 12 Noroeste 0 -- -- 76
2019-08-14 18:00:00 21.6 4 Este 15 Sur 0 -- -- 68
2019-08-14 17:00:00 22.6 5 Nordeste 16 Sudeste 0 -- -- 66
2019-08-14 16:00:00 20.4 6 Noroeste 15 Noroeste 0 -- -- 67
2019-08-14 15:00:00 21.1 4 Sudeste 14 Sudeste 0 -- -- 66
2019-08-14 14:00:00 20 3 Norte 12 Este 0 -- -- 66
2019-08-14 13:00:00 20.1 4 Este 10 Sur 0 -- -- 63
2019-08-14 12:00:00 17.7 3 Noroeste 8 Sur 0 -- -- 61
2019-08-14 11:00:00 18.4 4 Sur 10 Sur 0 -- -- 60
2019-08-14 10:00:00 16.4 2 Este 5 Sudeste 0 -- -- 63
2019-08-14 09:00:00 11.5 2 Norte 8 Oeste 0 -- -- 83
2019-08-14 08:00:00 9.2 6 Noroeste 8 Noroeste 0 -- -- 84
2019-08-14 07:00:00 9 3 Noroeste 8 Noroeste 0 -- -- 83
2019-08-14 06:00:00 8.7 5 Noroeste 8 Noroeste 0 -- -- 84
2019-08-14 05:00:00 8.7 4 Noroeste 8 Noroeste 0 -- -- 85
2019-08-14 04:00:00 8.8 6 Noroeste 8 Noroeste 0 -- -- 83
2019-08-14 03:00:00 8.9 5 Noroeste 8 Noroeste 0 -- -- 85
2019-08-14 02:00:00 9.4 6 Noroeste 8 Noroeste 0 -- -- 89
2019-08-14 01:00:00 10.4 4 Noroeste 8 Noroeste 0 -- -- 94
2019-08-14 00:00:00 10.9 3 Noroeste 8 Noroeste 0 -- -- 95
2019-08-13 23:00:00 11.7 5 Noroeste 8 Oeste 0 -- -- 91
2019-08-13 22:00:00 13.8 3 Noroeste 12 Noroeste 0 -- -- 85
2019-08-13 21:00:00 15.3 10 Noroeste 22 Oeste 0 -- -- 78
2019-08-13 20:00:00 18.8 5 Oeste 18 Oeste 0 -- -- 57
2019-08-13 19:00:00 19.8 6 Oeste 18 Oeste 0 -- -- 47
2019-08-13 18:00:00 20.6 5 Noroeste 13 Noroeste 0 -- -- 51
2019-08-13 17:00:00 21.3 4 Noroeste 19 Sudeste 0 -- -- 51
2019-08-13 16:00:00 21.3 4 Nordeste 18 Sur 0 -- -- 46
2019-08-13 15:00:00 20 6 Noroeste 19 Sur 0 -- -- 50
2019-08-13 14:00:00 19.3 6 Sur 15 Sur 0 -- -- 49
2019-08-13 13:00:00 17.9 5 Noroeste 14 Sur 0 -- -- 53
2019-08-13 12:00:00 16.2 5 Sur 13 Sur 0 -- -- 56
2019-08-13 11:00:00 14.6 3 Sudeste 8 Sur 0 -- -- 67
2019-08-13 10:00:00 12.1 4 Sudeste 7 Este 0 -- -- 76
2019-08-13 09:00:00 7.8 0 Calma 5 Noroeste 0 -- -- 99
2019-08-13 08:00:00 5.3 3 Noroeste 6 Noroeste 0 -- -- 99
2019-08-13 07:00:00 5.1 2 Noroeste 5 Noroeste 0 -- -- 98
2019-08-13 06:00:00 5.4 3 Oeste 6 Noroeste 0 -- -- 98
2019-08-13 05:00:00 5.6 3 Noroeste 8 Noroeste 0 -- -- 97
2019-08-13 04:00:00 6.4 3 Noroeste 10 Este 0 -- -- 95
2019-08-13 03:00:00 7.2 0 Calma 12 Nordeste 0 -- -- 95
2019-08-13 02:00:00 8 0 Calma 3 Este 0 -- -- 96
2019-08-13 01:00:00 8.5 0 Calma 3 Sudeste 0 -- -- 94
2019-08-13 00:00:00 8.7 0 Calma 5 Sudoeste 0 -- -- 93
2019-08-12 23:00:00 9.2 3 Sur 9 Sur 0 -- -- 92
2019-08-12 22:00:00 10.4 5 Nordeste 14 Nordeste 0 -- -- 86
2019-08-12 21:00:00 11.1 8 Noroeste 16 Noroeste 0 -- -- 81
2019-08-12 20:00:00 12.7 7 Noroeste 15 Noroeste 0 -- -- 73
2019-08-12 19:00:00 13.6 5 Este 19 Norte 0 -- -- 62
2019-08-12 18:00:00 12.5 10 Norte 17 Noroeste 0 -- -- 65
2019-08-12 17:00:00 13 10 Oeste 23 Oeste 0 -- -- 59
2019-08-12 16:00:00 14.1 4 Sudeste 23 Noroeste 0 -- -- 57
2019-08-12 15:00:00 13.3 5 Noroeste 21 Noroeste 0 -- -- 61
2019-08-12 14:00:00 12.3 6 Noroeste 15 Noroeste 0 -- -- 62
2019-08-12 13:00:00 11.6 3 Sudoeste 16 Oeste 0 -- -- 64
2019-08-12 12:00:00 10.8 6 Sudeste 13 Sur 0 -- -- 72
2019-08-12 11:00:00 9.2 3 Noroeste 10 Noroeste 0 -- -- 80
2019-08-12 10:00:00 7.3 0 Calma 5 Sur 0 -- -- 94
2019-08-12 09:00:00 6.6 0 Calma 4 Noroeste 0 -- -- 97
2019-08-12 08:00:00 6.3 3 Norte 5 Noroeste 0 -- -- 96
2019-08-12 07:00:00 6.7 3 Sudoeste 8 Sur 0 -- -- 96
2019-08-12 06:00:00 6.8 2 Sur 12 Sur 0 -- -- 96
2019-08-12 05:00:00 7 0 Calma 11 Sudoeste 0 -- -- 98
2019-08-12 04:00:00 7.3 0 Calma 10 Sudoeste 0 -- -- 97
2019-08-12 03:00:00 7.5 0 Calma 5 Noroeste 0 -- -- 96
2019-08-12 02:00:00 7.5 0 Calma 6 Oeste 0 -- -- 95
2019-08-12 01:00:00 7.2 0 Calma 5 Oeste 0 -- -- 96
2019-08-12 00:00:00 7.2 0 Calma 5 Oeste 0 -- -- 95
2019-08-11 23:00:00 6.6 2 Oeste 7 Noroeste 0 -- -- 94
2019-08-11 22:00:00 8.6 3 Noroeste 12 Sudoeste 0 -- -- 83
2019-08-11 21:00:00 9.6 4 Noroeste 13 Noroeste 0 -- -- 77
2019-08-11 20:00:00 10.2 2 Oeste 9 Sudeste 0 -- -- 80
2019-08-11 19:00:00 10.5 4 Noroeste 19 Noroeste 0 -- -- 79
2019-08-11 18:00:00 9.9 6 Noroeste 18 Noroeste 0.2 -- -- 87
2019-08-11 17:00:00 10.6 4 Noroeste 33 Noroeste 0.2 -- -- 87
2019-08-11 16:00:00 15.5 3 Nordeste 18 Noroeste 0 -- -- 53
2019-08-11 15:00:00 14 7 Noroeste 19 Noroeste 0 -- -- 54
2019-08-11 14:00:00 14.4 6 Norte 17 Noroeste 0 -- -- 55
2019-08-11 13:00:00 14.3 8 Noroeste 21 Sudeste 0 -- -- 59
2019-08-11 12:00:00 13.4 4 Oeste 14 Sur 0 -- -- 69
2019-08-11 11:00:00 11 3 Este 6 Este 0 -- -- 83
2019-08-11 10:00:00 9.3 0 Calma 5 Nordeste 0 -- -- 98
2019-08-11 09:00:00 9.1 0 Calma 6 Sur 0 -- -- 99
2019-08-11 08:00:00 8.9 3 Sudoeste 11 Noroeste 0 -- -- 98
2019-08-11 07:00:00 9.1 0 Calma 6 Oeste 0 -- -- 99
2019-08-11 06:00:00 9.1 3 Oeste 6 Oeste 0 -- -- 99
2019-08-11 05:00:00 9.2 0 Calma 10 Oeste 0 -- -- 98
2019-08-11 04:00:00 9.4 0 Calma 7 Oeste 0 -- -- 99
2019-08-11 03:00:00 9.8 0 Calma 5 Sudeste 0 -- -- 98
2019-08-11 02:00:00 10.1 4 Oeste 9 Sudoeste 0 -- -- 97
2019-08-11 01:00:00 10.5 2 Norte 6 Oeste 0 -- -- 96
2019-08-11 00:00:00 10.9 2 Sudoeste 5 Sudoeste 0 -- -- 94
2019-08-10 23:00:00 11.5 3 Sur 11 Noroeste 0 -- -- 92
2019-08-10 22:00:00 12.5 2 Noroeste 10 Oeste 0 -- -- 89
2019-08-10 21:00:00 13.8 6 Noroeste 16 Noroeste 0 -- -- 80
2019-08-10 20:00:00 15 3 Oeste 19 Noroeste 0 -- -- 72
2019-08-10 19:00:00 16 7 Noroeste 16 Noroeste 0 -- -- 65
2019-08-10 18:00:00 18.3 4 Nordeste 14 Sur 0 -- -- 56
2019-08-10 17:00:00 19.2 5 Este 13 Sur 0 -- -- 54
2019-08-10 16:00:00 18.4 3 Oeste 17 Sur 0 -- -- 57
2019-08-10 15:00:00 18.2 8 Sur 18 Sur 0 -- -- 60
2019-08-10 14:00:00 17.2 4 Sudeste 16 Sur 0 -- -- 61
2019-08-10 13:00:00 15.8 5 Oeste 18 Sur 0 -- -- 63
2019-08-10 12:00:00 15.2 5 Sur 15 Sudoeste 0 -- -- 63
2019-08-10 11:00:00 14.3 6 Sur 13 Sur 0 -- -- 67
2019-08-10 10:00:00 11 4 Sudeste 9 Sudeste 0 -- -- 83
2019-08-10 09:00:00 7.4 4 Noroeste 5 Noroeste 0 -- -- 94
2019-08-10 08:00:00 6.8 2 Noroeste 7 Norte 0 -- -- 94
2019-08-10 07:00:00 6.5 3 Noroeste 6 Oeste 0 -- -- 94
2019-08-10 06:00:00 8.3 3 Noroeste 15 Noroeste 0 -- -- 86
2019-08-10 05:00:00 9.6 5 Noroeste 11 Noroeste 0 -- -- 81
2019-08-10 04:00:00 10 4 Noroeste 13 Noroeste 0 -- -- 82
2019-08-10 03:00:00 10.3 5 Noroeste 11 Norte 0 -- -- 81
2019-08-10 02:00:00 10.6 4 Noroeste 10 Oeste 0 -- -- 81
2019-08-10 01:00:00 10 4 Noroeste 9 Noroeste 0 -- -- 84
2019-08-10 00:00:00 9.6 5 Noroeste 9 Noroeste 0 -- -- 86
2019-08-09 23:00:00 11.6 3 Noroeste 8 Noroeste 0 -- -- 78
2019-08-09 22:00:00 11.9 2 Noroeste 6 Nordeste 0 -- -- 78
2019-08-09 21:00:00 13.1 2 Norte 8 Nordeste 0 -- -- 75
2019-08-09 20:00:00 14.6 6 Nordeste 16 Norte 0 -- -- 68
2019-08-09 19:00:00 15.2 4 Nordeste 19 Este 0 -- -- 69
2019-08-09 18:00:00 15.7 7 Nordeste 23 Nordeste 0 -- -- 68
2019-08-09 17:00:00 16.2 7 Nordeste 18 Sudeste 0 -- -- 67
2019-08-09 16:00:00 16.6 7 Este 22 Sur 0 -- -- 67
2019-08-09 15:00:00 16.4 10 Nordeste 28 Sur 0 -- -- 65
2019-08-09 14:00:00 17.7 9 Este 29 Este 0 -- -- 58
2019-08-09 13:00:00 17.2 9 Nordeste 33 Noroeste 0 -- -- 63
2019-08-09 12:00:00 16.3 8 Nordeste 41 Este 0 -- -- 66
2019-08-09 11:00:00 14.8 8 Norte 25 Oeste 0 -- -- 71
2019-08-09 10:00:00 13.2 7 Norte 20 Oeste 0 -- -- 75
2019-08-09 09:00:00 12.5 6 Norte 22 Sudeste 0 -- -- 73
2019-08-09 08:00:00 12.3 5 Nordeste 19 Nordeste 0 -- -- 79
2019-08-09 07:00:00 13.9 10 Nordeste 30 Norte 0 -- -- 80
2019-08-09 06:00:00 15.7 9 Nordeste 22 Nordeste 0.4 -- -- 94
2019-08-09 05:00:00 16 7 Sur 29 Sudeste 0.4 -- -- 96
2019-08-09 04:00:00 16.2 10 Nordeste 32 Sur 1 -- -- 95
2019-08-09 03:00:00 16.4 13 Nordeste 32 Sudeste 0.4 -- -- 93
2019-08-09 02:00:00 16.3 9 Nordeste 27 Nordeste 0.4 -- -- 93
2019-08-09 01:00:00 16.3 10 Este 34 Sur 0.2 -- -- 93
2019-08-09 00:00:00 17 12 Nordeste 32 Sur 0 -- -- 88
2019-08-08 23:00:00 17 10 Nordeste 34 Sudoeste 0 -- -- 88
2019-08-08 22:00:00 17.1 9 Norte 29 Sudoeste 0 -- -- 84
2019-08-08 21:00:00 17.4 9 Nordeste 40 Sudeste 0 -- -- 80
2019-08-08 20:00:00 18.6 11 Nordeste 26 Nordeste 0 -- -- 75
2019-08-08 19:00:00 18.7 6 Norte 30 Sudeste 0 -- -- 84
2019-08-08 18:00:00 18.9 7 Nordeste 28 Nordeste 0 -- -- 87
2019-08-08 17:00:00 18.9 7 Este 22 Sur 0 -- -- 91
2019-08-08 16:00:00 18.8 7 Este 29 Oeste 0.6 -- -- 94
2019-08-08 15:00:00 18.5 5 Nordeste 23 Sur 0.8 -- -- 93
2019-08-08 14:00:00 18.5 6 Sudeste 24 Sudeste 0 -- -- 86
2019-08-08 13:00:00 17.2 4 Norte 16 Sudeste 0 -- -- 90
2019-08-08 12:00:00 16.7 5 Sudeste 30 Sudeste 0 -- -- 92
2019-08-08 11:00:00 16.8 8 Sudeste 26 Sur 0 -- -- 90
2019-08-08 10:00:00 15.7 3 Norte 19 Sudeste 0 -- -- 94
2019-08-08 09:00:00 15.4 9 Norte 19 Noroeste 0 -- -- 92
2019-08-08 08:00:00 14.9 6 Noroeste 20 Noroeste 0 -- -- 96
2019-08-08 07:00:00 14.6 2 Noroeste 12 Noroeste 0 -- -- 97
2019-08-08 06:00:00 14.6 5 Noroeste 17 Noroeste 0 -- -- 96
2019-08-08 05:00:00 14.6 4 Noroeste 16 Noroeste 0 -- -- 96
2019-08-08 04:00:00 14.4 4 Este 12 Noroeste 0 -- -- 97
2019-08-08 03:00:00 14.4 4 Norte 15 Norte 0 -- -- 97
2019-08-08 02:00:00 14.5 8 Noroeste 21 Oeste 0.2 -- -- 94
2019-08-08 01:00:00 14.4 7 Oeste 21 Noroeste 1.6 -- -- 94
2019-08-08 00:00:00 14.5 4 Sudeste 19 Noroeste 0.4 -- -- 93
2019-08-07 23:00:00 14.3 11 Noroeste 25 Oeste 0 -- -- 95
2019-08-07 22:00:00 14.4 6 Noroeste 21 Noroeste 0.2 -- -- 95
2019-08-07 21:00:00 14.6 4 Nordeste 12 Oeste 0.2 -- -- 94
2019-08-07 20:00:00 14.7 3 Sur 10 Sur 0.2 -- -- 94
2019-08-07 19:00:00 15 3 Nordeste 10 Nordeste 0 -- -- 94
2019-08-07 18:00:00 14.7 3 Sudoeste 19 Sur 0.2 -- -- 95
2019-08-07 17:00:00 14.7 3 Sudoeste 10 Noroeste 2.4 -- -- 94
2019-08-07 16:00:00 16.7 3 Sudeste 12 Noroeste 0.6 -- -- 89
2019-08-07 15:00:00 16.9 4 Noroeste 16 Este 0.4 -- -- 77
2019-08-07 14:00:00 17.6 6 Sudeste 21 Sudeste 0 -- -- 66
2019-08-07 13:00:00 18.2 5 Este 16 Sur 0 -- -- 63
2019-08-07 12:00:00 17.4 6 Sudeste 15 Sur 0 -- -- 66
2019-08-07 11:00:00 17.2 5 Sur 17 Sudeste 0 -- -- 66
2019-08-07 10:00:00 15.9 2 Sudeste 13 Este 0 -- -- 74
2019-08-07 09:00:00 12.8 2 Nordeste 5 Noroeste 0 -- -- 92
2019-08-07 08:00:00 11 0 Calma 6 Noroeste 0 -- -- 96
2019-08-07 07:00:00 10 3 Noroeste 7 Noroeste 0 -- -- 95
2019-08-07 06:00:00 9.7 5 Noroeste 8 Noroeste 0 -- -- 94
2019-08-07 05:00:00 9.4 6 Noroeste 8 Noroeste 0 -- -- 95
2019-08-07 04:00:00 10 6 Noroeste 8 Noroeste 0 -- -- 93
2019-08-07 03:00:00 11.2 2 Noroeste 6 Noroeste 0 -- -- 93
2019-08-07 02:00:00 10.6 0 Calma 7 Noroeste 0 -- -- 94
2019-08-07 01:00:00 11.1 3 Noroeste 7 Noroeste 0 -- -- 93
2019-08-07 00:00:00 11.5 5 Noroeste 8 Noroeste 0 -- -- 94
2019-08-06 23:00:00 12.2 6 Noroeste 9 Noroeste 0 -- -- 94
2019-08-06 22:00:00 13.7 2 Noroeste 6 Noroeste 0 -- -- 95
2019-08-06 21:00:00 14.3 2 Norte 7 Este 0 -- -- 93
2019-08-06 20:00:00 14.8 3 Oeste 9 Norte 0.2 -- -- 93
2019-08-06 19:00:00 15.1 3 Nordeste 12 Oeste 0.4 -- -- 93
2019-08-06 18:00:00 16.3 6 Noroeste 18 Oeste 0 -- -- 87
2019-08-06 17:00:00 19.2 5 Nordeste 12 Nordeste 0 -- -- 75
2019-08-06 16:00:00 19.9 4 Este 12 Sudoeste 0 -- -- 72
2019-08-06 15:00:00 22.3 4 Sudeste 14 Sudeste 0 -- -- 67
2019-08-06 14:00:00 22 4 Noroeste 13 Sur 0 -- -- 56
2019-08-06 13:00:00 21 5 Sur 9 Sur 0 -- -- 65
2019-08-06 12:00:00 19.6 4 Oeste 15 Sur 0 -- -- 69
2019-08-06 11:00:00 18.2 4 Sur 11 Sudeste 0 -- -- 76
2019-08-06 10:00:00 16.9 3 Sur 6 Sur 0 -- -- 81
2019-08-06 09:00:00 13.6 0 Calma 5 Noroeste 0 -- -- 95
2019-08-06 08:00:00 12.1 5 Noroeste 8 Noroeste 0 -- -- 96
2019-08-06 07:00:00 12 5 Noroeste 8 Noroeste 0 -- -- 97
2019-08-06 06:00:00 12 4 Noroeste 6 Noroeste 0 -- -- 96
2019-08-06 05:00:00 12.1 4 Noroeste 7 Noroeste 0 -- -- 97
2019-08-06 04:00:00 11.9 3 Noroeste 7 Noroeste 0 -- -- 97
2019-08-06 03:00:00 12.3 5 Noroeste 7 Noroeste 0 -- -- 95
2019-08-06 02:00:00 13.4 4 Noroeste 5 Noroeste 0 -- -- 94
2019-08-06 01:00:00 13.6 4 Noroeste 10 Noroeste 0 -- -- 93
2019-08-06 00:00:00 14.9 0 Calma 4 Noroeste 0 -- -- 90
2019-08-05 23:00:00 15.3 0 Calma 4 Noroeste 0 -- -- 88
2019-08-05 22:00:00 16.7 0 Calma 9 Sudoeste 0 -- -- 84
2019-08-05 21:00:00 18.6 4 Oeste 22 Noroeste 0 -- -- 77
2019-08-05 20:00:00 21 12 Noroeste 26 Noroeste 0 -- -- 67
2019-08-05 19:00:00 22.7 12 Noroeste 23 Noroeste 0 -- -- 56
2019-08-05 18:00:00 24.2 5 Oeste 17 Sudoeste 0 -- -- 50
2019-08-05 17:00:00 23.9 6 Noroeste 18 Sur 0 -- -- 52
2019-08-05 16:00:00 25.3 7 Sudeste 17 Sur 0 -- -- 51
2019-08-05 15:00:00 23.7 6 Sudeste 19 Sur 0 -- -- 51
2019-08-05 14:00:00 22.6 5 Noroeste 18 Sudoeste 0 -- -- 49
2019-08-05 13:00:00 21.4 3 Norte 11 Noroeste 0 -- -- 49
2019-08-05 12:00:00 20 4 Sudoeste 10 Sudoeste 0 -- -- 59
2019-08-05 11:00:00 19.9 5 Sudeste 8 Sur 0 -- -- 51
2019-08-05 10:00:00 17.8 3 Sur 5 Sudeste 0 -- -- 64
2019-08-05 09:00:00 13.8 2 Este 7 Noroeste 0 -- -- 77
2019-08-05 08:00:00 9.7 5 Noroeste 8 Noroeste 0 -- -- 85
2019-08-05 07:00:00 9.8 6 Noroeste 8 Noroeste 0 -- -- 86
2019-08-05 06:00:00 10 5 Noroeste 7 Noroeste 0 -- -- 88
2019-08-05 05:00:00 9.8 4 Noroeste 7 Noroeste 0 -- -- 90
2019-08-05 04:00:00 9.9 6 Noroeste 8 Noroeste 0 -- -- 92
2019-08-05 03:00:00 12.1 3 Noroeste 5 Noroeste 0 -- -- 95
2019-08-05 02:00:00 12.1 3 Noroeste 5 Noroeste 0 -- -- 91
2019-08-05 01:00:00 13.4 4 Noroeste 5 Nordeste 0 -- -- 93
2019-08-05 00:00:00 15 5 Norte 7 Norte 0 -- -- 91
2019-08-04 23:00:00 15.6 0 Calma 6 Sudeste 0 -- -- 92
2019-08-04 22:00:00 16.3 3 Sur 11 Oeste 0 -- -- 89
2019-08-04 21:00:00 17.6 2 Sur 18 Noroeste 0 -- -- 83
2019-08-04 20:00:00 19.7 9 Noroeste 27 Oeste 0 -- -- 74
2019-08-04 19:00:00 21 15 Noroeste 26 Noroeste 0 -- -- 66
2019-08-04 18:00:00 23.1 7 Noroeste 19 Oeste 0 -- -- 54
2019-08-04 17:00:00 23.9 5 Nordeste 16 Sur 0 -- -- 58
2019-08-04 16:00:00 23.2 4 Nordeste 15 Sur 0 -- -- 67
2019-08-04 15:00:00 22.2 7 Este 17 Sur 0 -- -- 67
2019-08-04 14:00:00 21.8 6 Este 13 Noroeste 0 -- -- 69
2019-08-04 13:00:00 19.9 6 Noroeste 17 Oeste 0 -- -- 74
2019-08-04 12:00:00 20 4 Noroeste 12 Sudoeste 0 -- -- 75
2019-08-04 11:00:00 17.9 4 Noroeste 8 Oeste 0 -- -- 81
2019-08-04 10:00:00 13.9 2 Este 4 Este 0 -- -- 98
2019-08-04 09:00:00 12.8 0 Calma 6 Norte 0 -- -- 99
2019-08-04 08:00:00 12.2 0 Calma 4 Oeste 0 -- -- 99
2019-08-04 07:00:00 12.8 0 Calma 4 Nordeste 0 -- -- 98
2019-08-04 06:00:00 13.2 2 Norte 5 Noroeste 0 -- -- 98
2019-08-04 05:00:00 13.4 2 Noroeste 6 Norte 0 -- -- 98
2019-08-04 04:00:00 13.3 3 Noroeste 5 Noroeste 0 -- -- 98
2019-08-04 03:00:00 12.5 3 Noroeste 6 Oeste 0 -- -- 96
2019-08-04 02:00:00 13.3 3 Oeste 6 Noroeste 0 -- -- 94
2019-08-04 01:00:00 15.4 0 Calma 9 Sudoeste 0 -- -- 91
2019-08-04 00:00:00 15.7 2 Oeste 8 Noroeste 0 -- -- 92
2019-08-03 23:00:00 15.1 3 Noroeste 5 Noroeste 0 -- -- 92
2019-08-03 22:00:00 17 3 Norte 8 Oeste 0 -- -- 85
2019-08-03 21:00:00 19 3 Oeste 23 Oeste 0 -- -- 77
2019-08-03 20:00:00 20.4 16 Noroeste 27 Noroeste 0 -- -- 74
2019-08-03 19:00:00 22.6 13 Noroeste 23 Noroeste 0 -- -- 64
2019-08-03 18:00:00 23.5 12 Noroeste 30 Noroeste 0 -- -- 60
2019-08-03 17:00:00 23.8 9 Noroeste 24 Noroeste 0 -- -- 60
2019-08-03 16:00:00 27 6 Sur 15 Sur 0 -- -- 49
2019-08-03 15:00:00 26.1 6 Este 15 Sur 0 -- -- 41
2019-08-03 14:00:00 24.9 3 Norte 12 Sudoeste 0 -- -- 44
2019-08-03 13:00:00 23.3 5 Noroeste 14 Sur 0 -- -- 60
2019-08-03 12:00:00 22.3 4 Noroeste 11 Sur 0 -- -- 62
2019-08-03 11:00:00 22.5 6 Sudeste 11 Este 0 -- -- 54
2019-08-03 10:00:00 20.4 8 Este 17 Este 0 -- -- 60
2019-08-03 09:00:00 18.1 9 Nordeste 16 Este 0 -- -- 68
2019-08-03 08:00:00 12.8 3 Oeste 7 Noroeste 0 -- -- 94
2019-08-03 07:00:00 12.9 6 Noroeste 9 Nordeste 0 -- -- 95
2019-08-03 06:00:00 13.8 4 Noroeste 17 Nordeste 0 -- -- 91
2019-08-03 05:00:00 16.8 10 Nordeste 24 Nordeste 0 -- -- 82
2019-08-03 04:00:00 13.5 3 Norte 9 Nordeste 0 -- -- 95
2019-08-03 03:00:00 13.4 2 Oeste 7 Oeste 0 -- -- 95
2019-08-03 02:00:00 14 3 Noroeste 12 Este 0 -- -- 96
2019-08-03 01:00:00 13.7 3 Noroeste 5 Noroeste 0 -- -- 95
2019-08-03 00:00:00 14.4 4 Noroeste 6 Noroeste 0 -- -- 94
2019-08-02 23:00:00 15.2 4 Noroeste 5 Noroeste 0 -- -- 90
2019-08-02 22:00:00 17.9 0 Calma 17 Norte 0 -- -- 81
2019-08-02 21:00:00 19.9 11 Norte 20 Norte 0 -- -- 73
2019-08-02 20:00:00 21.9 11 Noroeste 22 Noroeste 0 -- -- 64
2019-08-02 19:00:00 23 9 Noroeste 26 Oeste 0 -- -- 60
2019-08-02 18:00:00 23.4 10 Noroeste 22 Oeste 0 -- -- 58
2019-08-02 17:00:00 25.2 5 Oeste 17 Sur 0 -- -- 51
2019-08-02 16:00:00 25.6 5 Sudeste 15 Sur 0 -- -- 46
2019-08-02 15:00:00 25 6 Sur 15 Sur 0 -- -- 48
2019-08-02 14:00:00 24.4 5 Este 15 Sur 0 -- -- 49
2019-08-02 13:00:00 23.3 5 Sur 13 Noroeste 0 -- -- 45
2019-08-02 12:00:00 22.8 6 Sudeste 14 Sur 0 -- -- 50
2019-08-02 11:00:00 21 4 Sudeste 8 Sudeste 0 -- -- 49
2019-08-02 10:00:00 18.6 2 Sudeste 4 Sudeste 0 -- -- 57
2019-08-02 09:00:00 13.5 2 Noroeste 8 Noroeste 0 -- -- 77
2019-08-02 08:00:00 9.9 5 Noroeste 9 Noroeste 0 -- -- 80
2019-08-02 07:00:00 9.8 5 Noroeste 9 Noroeste 0 -- -- 74
2019-08-02 06:00:00 9.8 5 Oeste 8 Noroeste 0 -- -- 75
2019-08-02 05:00:00 10 6 Noroeste 9 Noroeste 0 -- -- 71
2019-08-02 04:00:00 9.5 3 Noroeste 20 Nordeste 0 -- -- 76
2019-08-02 03:00:00 13 18 Este 26 Este 0 -- -- 87
2019-08-02 02:00:00 9.6 4 Noroeste 8 Noroeste 0 -- -- 88
2019-08-02 01:00:00 12.1 3 Noroeste 4 Noroeste 0 -- -- 89
2019-08-02 00:00:00 14 0 Calma 5 Sudeste 0 -- -- 92
2019-08-01 23:00:00 14.4 0 Calma 5 Sur 0 -- -- 92
2019-08-01 22:00:00 14.9 0 Calma 8 Oeste 0 -- -- 91
2019-08-01 21:00:00 16.5 5 Sudoeste 21 Noroeste 0 -- -- 83
2019-08-01 20:00:00 18.3 14 Noroeste 23 Noroeste 0 -- -- 74
2019-08-01 19:00:00 20.2 10 Noroeste 22 Noroeste 0 -- -- 65
2019-08-01 18:00:00 20.5 9 Noroeste 22 Oeste 0 -- -- 63
2019-08-01 17:00:00 21.9 6 Sudeste 16 Sur 0 -- -- 63
2019-08-01 16:00:00 21.1 4 Norte 19 Sudoeste 0 -- -- 65
2019-08-01 15:00:00 19.6 5 Sudeste 15 Sudeste 0 -- -- 68
2019-08-01 14:00:00 18.5 4 Norte 16 Este 0 -- -- 73
2019-08-01 13:00:00 18.1 4 Nordeste 12 Sudeste 0 -- -- 70
2019-08-01 12:00:00 16.1 4 Oeste 13 Sur 0 -- -- 78
2019-08-01 11:00:00 15.6 5 Sur 10 Sur 0 -- -- 77
2019-08-01 10:00:00 16.2 2 Sur 4 Sur 0 -- -- 75
2019-08-01 09:00:00 12.6 0 Calma 6 Noroeste 0 -- -- 89
2019-08-01 08:00:00 9.3 3 Noroeste 8 Noroeste 0 -- -- 94
2019-08-01 07:00:00 8.9 6 Noroeste 8 Noroeste 0 -- -- 95
2019-08-01 06:00:00 9 4 Noroeste 6 Noroeste 0 -- -- 96
2019-08-01 05:00:00 9.4 3 Oeste 8 Noroeste 0 -- -- 96
2019-08-01 04:00:00 9.6 2 Noroeste 7 Sur 0 -- -- 95
2019-08-01 03:00:00 10.8 4 Sudeste 18 Este 0 -- -- 95
2019-08-01 02:00:00 11.7 0 Calma 3 Sur 0 -- -- 95
2019-08-01 01:00:00 12.2 0 Calma 5 Sudeste 0 -- -- 94
2019-08-01 00:00:00 12.5 0 Calma 6 Sur 0 -- -- 94
2019-07-31 23:00:00 12.9 2 Sur 5 Sudeste 0 -- -- 93
2019-07-31 22:00:00 13.4 0 Calma 5 Noroeste 0 -- -- 90
2019-07-31 21:00:00 14.2 0 Calma 8 Nordeste 0 -- -- 86
2019-07-31 20:00:00 16 3 Este 13 Sur 0 -- -- 79
2019-07-31 19:00:00 17.1 4 Sur 13 Noroeste 0 -- -- 74
2019-07-31 18:00:00 17.2 3 Oeste 15 Noroeste 0 -- -- 71
2019-07-31 17:00:00 19.3 5 Sudeste 15 Sudoeste 0 -- -- 63
2019-07-31 16:00:00 18.7 3 Este 14 Sur 0 -- -- 63
2019-07-31 15:00:00 18.6 4 Este 11 Sudeste 0 -- -- 61
2019-07-31 14:00:00 19.4 4 Nordeste 14 Sur 0 -- -- 55
2019-07-31 13:00:00 18.3 4 Oeste 11 Sur 0 -- -- 57
2019-07-31 12:00:00 17.8 3 Sudeste 9 Sudeste 0 -- -- 59
2019-07-31 11:00:00 16.3 4 Sudeste 16 Sudeste 0 -- -- 63
2019-07-31 10:00:00 14.5 6 Este 18 Este 0 -- -- 67
2019-07-31 09:00:00 12.2 13 Este 20 Este 0 -- -- 74
2019-07-31 08:00:00 6.3 4 Noroeste 9 Oeste 0 -- -- 96
2019-07-31 07:00:00 6.1 3 Noroeste 6 Noroeste 0 -- -- 94
2019-07-31 06:00:00 6.1 2 Oeste 15 Nordeste 0 -- -- 95
2019-07-31 05:00:00 6.4 3 Noroeste 12 Este 0 -- -- 95
2019-07-31 04:00:00 6.3 2 Noroeste 9 Sur 0 -- -- 95
2019-07-31 03:00:00 7.7 3 Noroeste 14 Este 0 -- -- 91
2019-07-31 02:00:00 9.1 9 Este 17 Este 0 -- -- 91
2019-07-31 01:00:00 9.7 3 Sudeste 12 Sudeste 0 -- -- 92
2019-07-31 00:00:00 9.8 0 Calma 5 Sur 0 -- -- 93
2019-07-30 23:00:00 10.3 0 Calma 7 Sudoeste 0 -- -- 91
2019-07-30 22:00:00 10.7 3 Sudoeste 18 Norte 0 -- -- 88
2019-07-30 21:00:00 12.9 7 Norte 21 Noroeste 0 -- -- 77
2019-07-30 20:00:00 15 11 Noroeste 19 Noroeste 0 -- -- 65
2019-07-30 19:00:00 16.2 6 Noroeste 22 Oeste 0 -- -- 56
2019-07-30 18:00:00 17.2 5 Oeste 18 Sudeste 0 -- -- 55
2019-07-30 17:00:00 17.8 5 Sudeste 18 Sur 0 -- -- 55
2019-07-30 16:00:00 17 4 Nordeste 19 Sur 0 -- -- 55
2019-07-30 15:00:00 16 6 Sudeste 18 Sur 0 -- -- 58
2019-07-30 14:00:00 14.7 5 Norte 14 Noroeste 0 -- -- 64
2019-07-30 13:00:00 12.9 4 Este 15 Este 0 -- -- 68
2019-07-30 12:00:00 12.5 4 Sudeste 16 Oeste 0 -- -- 71
2019-07-30 11:00:00 10.2 3 Sudoeste 11 Noroeste 0 -- -- 78
2019-07-30 10:00:00 8.9 3 Noroeste 9 Oeste 0 -- -- 83
2019-07-30 09:00:00 7 0 Calma 11 Sudoeste 0 -- -- 95
2019-07-30 08:00:00 6.8 2 Sur 8 Sur 0 -- -- 97
2019-07-30 07:00:00 6.7 3 Noroeste 14 Noroeste 0 -- -- 97
2019-07-30 06:00:00 6.6 5 Noroeste 10 Noroeste 0 -- -- 94
2019-07-30 05:00:00 6.5 3 Noroeste 9 Noroeste 0 -- -- 95
2019-07-30 04:00:00 7.2 3 Oeste 10 Sudoeste 0 -- -- 92
2019-07-30 03:00:00 7.4 2 Noroeste 15 Sur 0 -- -- 95
2019-07-30 02:00:00 7.6 0 Calma 13 Oeste 0 -- -- 95
2019-07-30 01:00:00 7.8 0 Calma 7 Sur 0 -- -- 94
2019-07-30 00:00:00 8.1 3 Sudeste 10 Noroeste 0 -- -- 94
2019-07-29 23:00:00 8.7 3 Norte 12 Sur 0.2 -- -- 94
2019-07-29 22:00:00 10.4 3 Norte 9 Este 0 -- -- 87
2019-07-29 21:00:00 11.6 4 Nordeste 11 Noroeste 0 -- -- 78
2019-07-29 20:00:00 13.2 3 Norte 18 Noroeste 0 -- -- 71
2019-07-29 19:00:00 14.1 6 Noroeste 17 Oeste 0 -- -- 63
2019-07-29 18:00:00 15.3 7 Noroeste 20 Noroeste 0 -- -- 59
2019-07-29 17:00:00 17.2 7 Noroeste 19 Noroeste 0 -- -- 54
2019-07-29 16:00:00 15.7 4 Este 16 Noroeste 0 -- -- 58
2019-07-29 15:00:00 16.1 6 Noroeste 20 Noroeste 0 -- -- 52
2019-07-29 14:00:00 16.5 7 Norte 22 Oeste 0 -- -- 53
2019-07-29 13:00:00 16.6 5 Nordeste 13 Nordeste 0 -- -- 56
2019-07-29 12:00:00 15.6 4 Este 16 Sudoeste 0 -- -- 65
2019-07-29 11:00:00 14.7 5 Nordeste 10 Sudeste 0 -- -- 76
2019-07-29 10:00:00 13.4 3 Este 8 Sur 0 -- -- 84
2019-07-29 09:00:00 13.8 3 Sudeste 7 Sudeste 0 -- -- 84
2019-07-29 08:00:00 11.5 0 Calma 5 Noroeste 0 -- -- 86
2019-07-29 07:00:00 10.6 3 Noroeste 5 Oeste 0 -- -- 89
2019-07-29 06:00:00 10.9 3 Noroeste 12 Sudoeste 0 -- -- 85
2019-07-29 05:00:00 10.8 4 Noroeste 16 Oeste 0 -- -- 83
2019-07-29 04:00:00 9.2 2 Norte 10 Noroeste 0 -- -- 73
2019-07-29 03:00:00 9.5 4 Noroeste 10 Noroeste 0 -- -- 80
2019-07-29 02:00:00 10.8 7 Noroeste 12 Oeste 0 -- -- 83
2019-07-29 01:00:00 11 5 Oeste 9 Noroeste 0 -- -- 82
2019-07-29 00:00:00 10.9 4 Noroeste 8 Noroeste 0 -- -- 78
2019-07-28 23:00:00 11.6 4 Noroeste 9 Noroeste 0 -- -- 74
2019-07-28 22:00:00 12.9 3 Oeste 8 Noroeste 0 -- -- 69
2019-07-28 21:00:00 16.9 2 Noroeste 8 Oeste 0 -- -- 62
2019-07-28 20:00:00 20.8 2 Oeste 8 Noroeste 0 -- -- 50
2019-07-28 19:00:00 20.7 3 Oeste 17 Sudoeste 0 -- -- 52
2019-07-28 18:00:00 20.9 4 Oeste 15 Noroeste 0 -- -- 48
2019-07-28 17:00:00 20.3 4 Noroeste 13 Noroeste 0 -- -- 50
2019-07-28 16:00:00 19.1 7 Noroeste 18 Oeste 0 -- -- 50
2019-07-28 15:00:00 18.8 4 Norte 19 Sudeste 0 -- -- 57
2019-07-28 14:00:00 18.3 8 Sudeste 20 Sur 0 -- -- 58
2019-07-28 13:00:00 17.1 5 Sur 14 Sur 0 -- -- 60
2019-07-28 12:00:00 15.7 4 Sur 15 Sur 0 -- -- 67
2019-07-28 11:00:00 14.8 4 Sudeste 13 Sur 0 -- -- 71
2019-07-28 10:00:00 13.2 4 Sudeste 7 Sur 0 -- -- 73
2019-07-28 09:00:00 9.4 0 Calma 8 Noroeste 0 -- -- 84
2019-07-28 08:00:00 6.2 4 Noroeste 17 Nordeste 0 -- -- 92
2019-07-28 07:00:00 8.1 7 Nordeste 19 Nordeste 0 -- -- 87
2019-07-28 06:00:00 8.4 8 Nordeste 19 Nordeste 0 -- -- 84
2019-07-28 05:00:00 8.7 14 Nordeste 23 Nordeste 0 -- -- 85
2019-07-28 04:00:00 7.8 11 Nordeste 17 Nordeste 0 -- -- 93
2019-07-28 03:00:00 7.5 2 Noroeste 6 Norte 0 -- -- 97
2019-07-28 02:00:00 8.7 0 Calma 5 Norte 0 -- -- 97
2019-07-28 01:00:00 9.3 0 Calma 3 Sudoeste 0 -- -- 96
2019-07-28 00:00:00 9.7 0 Calma 8 Sudoeste 0 -- -- 97
2019-07-27 23:00:00 10 3 Sur 9 Sudoeste 0 -- -- 96
2019-07-26 12:00:00 -- -- -- -- -- -- -- -- --
2019-07-26 11:00:00 -- -- -- -- -- -- -- -- --
2019-07-26 10:00:00 -- -- -- -- -- -- -- -- --
2019-07-26 09:00:00 9.5 0 Calma 4 Noroeste 0 -- -- 99
2019-07-26 08:00:00 8.9 2 Noroeste 5 Nordeste 0 -- -- 99
2019-07-26 07:00:00 9.5 0 Calma 5 Oeste 0 -- -- 100
2019-07-26 06:00:00 10 0 Calma 7 Sudeste 0 -- -- 100
2019-07-26 05:00:00 10.2 0 Calma 6 Norte 0 -- -- 100
2019-07-26 04:00:00 10.8 3 Este 8 Sudoeste 0 -- -- 99
2019-07-26 03:00:00 11.6 2 Norte 6 Noroeste 0.2 -- -- 99
2019-07-26 02:00:00 12.2 0 Calma 6 Noroeste 0.6 -- -- 99
2019-07-26 01:00:00 12.5 0 Calma 5 Noroeste 1 -- -- 99
2019-07-26 00:00:00 13.1 3 Nordeste 8 Sudoeste 0.4 -- -- 99
2019-07-25 23:00:00 13.7 0 Calma 8 Nordeste 2.6 -- -- 98
2019-07-25 22:00:00 14.5 3 Nordeste 6 Sur 2 -- -- 95
2019-07-25 21:00:00 15.2 2 Nordeste 8 Nordeste 0.8 -- -- 94
2019-07-25 20:00:00 16.3 0 Calma 7 Norte 0.4 -- -- 89
2019-07-25 19:00:00 17.7 0 Calma 8 Nordeste 0 -- -- 84
2019-07-25 18:00:00 20 2 Sudeste 8 Este 0 -- -- 68
2019-07-25 17:00:00 22.4 3 Norte 13 Este 0 -- -- 57
2019-07-25 16:00:00 22.7 4 Norte 14 Sudeste 0 -- -- 51
2019-07-25 15:00:00 23.6 6 Este 22 Sudeste 0 -- -- 46
2019-07-25 14:00:00 24 9 Noroeste 20 Noroeste 0 -- -- 49
2019-07-25 13:00:00 23.8 5 Noroeste 22 Sudeste 0 -- -- 49
2019-07-25 12:00:00 22.2 8 Sudeste 30 Sudeste 0 -- -- 50
2019-07-25 11:00:00 20.5 12 Sudeste 30 Sur 0 -- -- 56
2019-07-25 10:00:00 18.7 11 Sudeste 31 Sur 0 -- -- 59
2019-07-25 09:00:00 17.3 6 Sudeste 15 Este 0 -- -- 66
2019-07-25 08:00:00 14.7 4 Noroeste 10 Sudeste 0 -- -- 71
2019-07-25 07:00:00 14.4 5 Noroeste 14 Sur 0 -- -- 65
2019-07-25 06:00:00 14.2 4 Sudeste 17 Este 0 -- -- 60
2019-07-25 05:00:00 13.6 4 Noroeste 9 Noroeste 0 -- -- 57
2019-07-25 04:00:00 13.8 5 Norte 9 Noroeste 0 -- -- 61
2019-07-25 03:00:00 14.6 5 Noroeste 9 Sudeste 0 -- -- 62
2019-07-25 02:00:00 16.7 3 Noroeste 17 Noroeste 0 -- -- 54
2019-07-25 01:00:00 17.5 4 Oeste 14 Sur 0 -- -- 60
2019-07-25 00:00:00 16.8 3 Norte 8 Noroeste 0 -- -- 68
2019-07-24 23:00:00 16.9 6 Noroeste 8 Oeste 0 -- -- 73
2019-07-24 22:00:00 19 5 Noroeste 8 Noroeste 0 -- -- 70
2019-07-24 21:00:00 23 3 Noroeste 12 Sudeste 0 -- -- 52
2019-07-24 20:00:00 25.3 4 Norte 13 Nordeste 0 -- -- 45
2019-07-24 19:00:00 26.1 6 Nordeste 18 Norte 0 -- -- 44
2019-07-24 18:00:00 26.9 4 Sudeste 17 Nordeste 0 -- -- 44
2019-07-24 17:00:00 27.7 6 Nordeste 23 Sur 0 -- -- 42
2019-07-24 16:00:00 27.6 7 Norte 24 Oeste 0 -- -- 43
2019-07-24 15:00:00 26.9 6 Oeste 19 Noroeste 0 -- -- 46
2019-07-24 14:00:00 26.1 7 Norte 23 Sudeste 0 -- -- 48
2019-07-24 13:00:00 25.6 5 Noroeste 31 Sudeste 0 -- -- 49
2019-07-24 12:00:00 24.9 12 Sudeste 22 Sudeste 0 -- -- 50
2019-07-24 11:00:00 23.5 4 Este 18 Sudeste 0 -- -- 56
2019-07-24 10:00:00 21.7 4 Sudeste 15 Este 0 -- -- 58
2019-07-24 09:00:00 17.8 4 Oeste 17 Nordeste 0 -- -- 76
2019-07-24 08:00:00 14.9 4 Noroeste 13 Nordeste 0 -- -- 84
2019-07-24 07:00:00 15.7 5 Norte 14 Este 0 -- -- 79
2019-07-24 06:00:00 16 4 Sudoeste 13 Este 0 -- -- 79
2019-07-24 05:00:00 16.5 2 Sudeste 30 Este 0 -- -- 78
2019-07-24 04:00:00 17.6 11 Nordeste 31 Nordeste 0 -- -- 71
2019-07-24 03:00:00 17.5 16 Nordeste 34 Este 0 -- -- 74
2019-07-24 02:00:00 15 5 Noroeste 8 Oeste 0 -- -- 96
2019-07-24 01:00:00 15 4 Noroeste 18 Nordeste 0 -- -- 94
2019-07-24 00:00:00 17.6 15 Nordeste 25 Este 0 -- -- 70
2019-07-23 23:00:00 16.2 14 Nordeste 25 Nordeste 0 -- -- 82
2019-07-23 22:00:00 15.4 5 Noroeste 34 Sudeste 1.8 -- -- 90
2019-07-23 21:00:00 21.4 4 Nordeste 15 Oeste 1.2 -- -- 79
2019-07-23 20:00:00 23.5 5 Noroeste 18 Oeste 0 -- -- 64
2019-07-23 19:00:00 25.9 3 Noroeste 15 Noroeste 0 -- -- 47
2019-07-23 18:00:00 25.7 4 Noroeste 13 Sur 0 -- -- 46
2019-07-23 17:00:00 26 5 Norte 16 Sudoeste 0 -- -- 45
2019-07-23 16:00:00 24.4 3 Noroeste 13 Noroeste 0 -- -- 49
2019-07-23 15:00:00 25.7 4 Nordeste 19 Oeste 0 -- -- 46
2019-07-23 14:00:00 24.9 7 Noroeste 18 Noroeste 0 -- -- 45
2019-07-23 13:00:00 25.4 7 Sur 23 Sudeste 0 -- -- 45
2019-07-23 12:00:00 23.4 8 Este 31 Este 0 -- -- 49
2019-07-23 11:00:00 21.6 19 Este 39 Este 0 -- -- 54
2019-07-23 10:00:00 21.1 18 Este 37 Nordeste 0 -- -- 52
2019-07-23 09:00:00 23.2 10 Sudeste 37 Este 0 -- -- 46
2019-07-23 08:00:00 21.3 5 Nordeste 23 Sudeste 0 -- -- 46
2019-07-23 07:00:00 20.2 8 Este 18 Este 0 -- -- 45
2019-07-23 06:00:00 17.3 2 Norte 13 Sur 0 -- -- 58
2019-07-23 05:00:00 19.1 0 Calma 19 Este 0 -- -- 54
2019-07-23 04:00:00 21.3 10 Nordeste 27 Nordeste 0 -- -- 44
2019-07-23 03:00:00 20.9 16 Nordeste 33 Nordeste 0 -- -- 47
2019-07-23 02:00:00 20.6 25 Nordeste 36 Este 0 -- -- 50
2019-07-23 01:00:00 19.7 22 Nordeste 31 Este 0 -- -- 54
2019-07-23 00:00:00 20.3 15 Este 32 Este 0 -- -- 53
2019-07-22 23:00:00 21.6 13 Este 33 Este 0 -- -- 49
2019-07-22 22:00:00 22.7 15 Este 28 Este 0 -- -- 67
2019-07-22 21:00:00 25.3 5 Oeste 25 Este 0 -- -- 56
2019-07-22 20:00:00 25.8 13 Este 21 Nordeste 0 -- -- 47
2019-07-22 19:00:00 25.4 11 Nordeste 21 Este 0 -- -- 47
2019-07-22 18:00:00 26.5 3 Oeste 14 Nordeste 0 -- -- 52
2019-07-22 17:00:00 30.8 4 Norte 10 Sudeste 0 -- -- 37
2019-07-22 16:00:00 30.1 4 Noroeste 21 Sudeste 0 -- -- 35
2019-07-22 15:00:00 29.9 5 Este 18 Oeste 0 -- -- 38
2019-07-22 14:00:00 29.2 8 Este 15 Este 0 -- -- 36
2019-07-22 13:00:00 29 9 Sudeste 17 Sudeste 0 -- -- 39
2019-07-22 12:00:00 27.1 8 Este 15 Nordeste 0 -- -- 50
2019-07-22 11:00:00 25.6 5 Este 16 Nordeste 0 -- -- 57
2019-07-22 10:00:00 23 3 Este 9 Este 0 -- -- 62
2019-07-22 09:00:00 18.3 3 Noroeste 7 Norte 0 -- -- 79
2019-07-22 08:00:00 15.4 4 Norte 10 Nordeste 0 -- -- 83
2019-07-22 07:00:00 15.1 4 Noroeste 26 Nordeste 0 -- -- 82
2019-07-22 06:00:00 19 14 Nordeste 25 Este 0 -- -- 70
2019-07-22 05:00:00 16.7 4 Noroeste 28 Este 0 -- -- 80
2019-07-22 04:00:00 16.9 6 Nordeste 18 Nordeste 0 -- -- 78
2019-07-22 03:00:00 15.9 3 Noroeste 27 Este 0 -- -- 83
2019-07-22 02:00:00 16.1 15 Este 28 Este 0 -- -- 89
2019-07-22 01:00:00 15.4 0 Calma 4 Sudeste 0 -- -- 93
2019-07-22 00:00:00 15.8 0 Calma 3 Oeste 0 -- -- 93